Time;durP1;ratioP1;P1;durP2;ratioP2;P2;SDS_P1;SDS_P2;PMS_P1;PMS_P2;Temp;Humidity;BMP_temperature;BMP_pressure;BME280_temperature;BME280_humidity;BME280_pressure;Samples;Min_cycle;Max_cycle;Signal;HPM_P1;HPM_P2
2023/09/14 00:00:45;;;;;;;9.50;5.00;;;;;;;14.54;86.14;102123.56;5034682;28;20579;-66
2023/09/14 00:03:13;;;;;;;9.68;5.55;;;;;;;14.41;86.70;102122.50;5054240;28;20032;-67
2023/09/14 00:05:40;;;;;;;8.40;5.25;;;;;;;14.43;86.65;102124.16;5033699;28;20172;-66
2023/09/14 00:08:05;;;;;;;8.30;5.30;;;;;;;14.45;86.22;102116.91;5052391;28;20134;-67
2023/09/14 00:10:32;;;;;;;12.00;5.65;;;;;;;14.48;86.34;102118.53;5044622;28;20104;-66
2023/09/14 00:12:57;;;;;;;8.32;5.13;;;;;;;14.35;86.43;102117.53;5034880;28;20163;-67
2023/09/14 00:15:22;;;;;;;8.00;5.15;;;;;;;14.41;86.33;102123.41;5032265;28;20500;-66
2023/09/14 00:17:50;;;;;;;8.65;4.20;;;;;;;14.33;86.31;102122.97;5051429;28;20039;-67
2023/09/14 00:20:24;;;;;;;6.38;4.40;;;;;;;14.28;86.41;102117.03;5032587;28;20029;-66
2023/09/14 00:22:53;;;;;;;9.57;4.95;;;;;;;14.28;85.86;102131.25;5036959;28;20158;-66
2023/09/14 00:25:22;;;;;;;8.80;4.85;;;;;;;14.22;86.42;102115.56;5051427;28;20025;-67
2023/09/14 00:27:48;;;;;;;6.13;2.60;;;;;;;14.49;85.49;102128.28;5051926;28;20029;-66
2023/09/14 00:30:16;;;;;;;7.95;4.57;;;;;;;14.20;86.20;102121.94;5051945;28;20032;-67
2023/09/14 00:32:42;;;;;;;10.07;5.32;;;;;;;14.15;86.58;102116.00;5045083;28;20119;-66
2023/09/14 00:35:09;;;;;;;9.48;5.25;;;;;;;14.08;86.75;102120.84;5065472;28;20025;-66
2023/09/14 00:37:35;;;;;;;6.55;4.55;;;;;;;14.09;87.08;102122.59;5067162;28;20052;-67
2023/09/14 00:40:03;;;;;;;8.52;5.35;;;;;;;14.11;87.17;102127.84;5051830;28;20104;-66
2023/09/14 00:42:29;;;;;;;11.35;5.45;;;;;;;14.07;86.87;102109.28;5036700;28;20051;-66
2023/09/14 00:44:54;;;;;;;7.70;4.43;;;;;;;14.10;87.03;102121.63;5051528;28;20503;-67
2023/09/14 00:47:19;;;;;;;7.75;5.07;;;;;;;14.05;87.26;102108.50;5051782;28;20040;-66
2023/09/14 00:49:45;;;;;;;5.95;4.53;;;;;;;14.09;87.16;102120.78;5033136;28;20021;-66
2023/09/14 00:52:10;;;;;;;7.68;4.82;;;;;;;14.05;87.29;102113.84;5037067;28;20475;-67
2023/09/14 00:54:38;;;;;;;7.05;4.95;;;;;;;13.99;86.86;102111.53;5061855;28;20025;-67
2023/09/14 00:57:04;;;;;;;7.05;4.97;;;;;;;14.03;86.99;102110.44;5059697;28;20024;-66
2023/09/14 00:59:30;;;;;;;8.20;5.45;;;;;;;14.04;87.16;102113.97;5058815;28;20087;-66
2023/09/14 01:01:56;;;;;;;7.15;5.10;;;;;;;13.95;87.41;102117.16;5043500;28;20025;-66
2023/09/14 01:04:21;;;;;;;9.88;4.97;;;;;;;13.90;87.58;102108.53;5054392;28;20089;-66
2023/09/14 01:06:47;;;;;;;8.38;5.78;;;;;;;13.95;87.46;102111.81;5066556;28;20036;-67
2023/09/14 01:09:12;;;;;;;13.10;5.45;;;;;;;13.83;87.71;102122.25;5052288;28;20052;-66
2023/09/14 01:11:37;;;;;;;8.80;5.55;;;;;;;13.92;88.03;102122.69;5051436;28;20025;-66
2023/09/14 01:14:20;;;;;;;6.70;5.35;;;;;;;13.82;88.23;102125.88;5049223;28;20021;-66
2023/09/14 01:17:00;;;;;;;7.95;5.47;;;;;;;13.78;88.32;102134.16;5033233;28;20057;-66
2023/09/14 01:19:43;;;;;;;9.13;5.70;;;;;;;13.60;89.07;102126.22;5048479;28;20028;-67
2023/09/14 01:22:22;;;;;;;7.05;5.35;;;;;;;13.63;89.32;102136.72;5049523;28;20029;-67
2023/09/14 01:24:56;;;;;;;12.00;6.15;;;;;;;13.75;88.84;102128.97;5050081;28;20025;-67
2023/09/14 01:27:22;;;;;;;8.95;5.57;;;;;;;13.73;88.69;102129.06;5067977;28;20036;-67
2023/09/14 01:29:48;;;;;;;8.63;5.78;;;;;;;13.62;88.10;102112.78;5051194;28;20769;-66
2023/09/14 01:32:13;;;;;;;9.25;6.50;;;;;;;13.69;88.54;102126.66;5033388;28;20198;-66
2023/09/14 01:34:39;;;;;;;6.90;5.82;;;;;;;13.70;88.42;102123.88;5032794;28;20025;-67
2023/09/14 01:37:05;;;;;;;9.27;6.07;;;;;;;13.63;88.51;102117.16;5034930;28;20527;-66
2023/09/14 01:39:32;;;;;;;8.48;5.75;;;;;;;13.62;88.72;102128.81;5036951;28;20065;-66
2023/09/14 01:41:58;;;;;;;9.00;5.85;;;;;;;13.59;88.50;102128.97;5055050;28;20025;-67
2023/09/14 01:44:31;;;;;;;9.18;6.80;;;;;;;13.49;89.23;102125.06;5055497;28;20044;-66
2023/09/14 01:46:57;;;;;;;7.85;5.63;;;;;;;13.55;88.83;102124.72;5055998;28;20046;-67
2023/09/14 01:49:22;;;;;;;10.13;6.55;;;;;;;13.60;88.49;102125.34;5056004;28;20020;-67
2023/09/14 01:51:48;;;;;;;7.88;3.35;;;;;;;13.80;87.51;102117.06;5036652;28;20058;-66
2023/09/14 01:54:13;;;;;;;10.27;5.68;;;;;;;13.58;88.14;102125.41;5036954;28;20109;-66
2023/09/14 01:56:39;;;;;;;10.52;6.07;;;;;;;13.55;88.09;102122.06;5055708;28;20059;-67
2023/09/14 01:59:05;;;;;;;8.93;5.60;;;;;;;13.48;88.11;102120.69;5037085;28;20040;-66
2023/09/14 02:01:30;;;;;;;7.40;6.03;;;;;;;13.43;88.37;102120.06;5070966;28;20032;-67
2023/09/14 02:03:55;;;;;;;7.75;5.97;;;;;;;13.36;88.40;102122.22;5074789;28;20048;-67
2023/09/14 02:06:21;;;;;;;7.93;5.65;;;;;;;13.44;88.56;102124.44;5074346;28;20520;-66
2023/09/14 02:08:46;;;;;;;8.02;5.75;;;;;;;13.34;88.57;102124.09;5059250;28;20060;-67
2023/09/14 02:11:13;;;;;;;9.13;6.07;;;;;;;13.33;88.48;102125.06;5051388;28;20033;-67
2023/09/14 02:13:39;;;;;;;8.10;5.88;;;;;;;13.32;88.46;102117.97;5034679;28;20024;-67
2023/09/14 02:16:05;;;;;;;8.35;5.95;;;;;;;13.39;88.63;102124.72;5043153;28;20285;-67
2023/09/14 02:18:30;;;;;;;7.05;5.97;;;;;;;13.33;89.11;102119.72;5049152;28;20124;-66
2023/09/14 02:20:56;;;;;;;8.70;6.32;;;;;;;13.24;88.95;102115.69;5052869;28;20029;-66
2023/09/14 02:23:21;;;;;;;8.75;5.55;;;;;;;13.27;88.83;102115.56;5036436;28;20021;-66
2023/09/14 02:25:49;;;;;;;7.47;5.90;;;;;;;13.17;89.01;102107.13;5068717;28;20535;-66
2023/09/14 02:28:19;;;;;;;13.20;6.45;;;;;;;13.15;89.25;102108.19;5054595;28;20033;-67
2023/09/14 02:30:45;;;;;;;7.50;5.70;;;;;;;13.25;88.69;102113.88;5035307;28;20104;-67
2023/09/14 02:33:10;;;;;;;7.53;5.97;;;;;;;13.13;88.90;102112.72;5052247;28;20250;-67
2023/09/14 02:35:36;;;;;;;7.35;5.78;;;;;;;13.13;89.19;102110.91;5052424;28;20488;-67
2023/09/14 02:38:02;;;;;;;8.43;5.93;;;;;;;13.10;88.56;102105.75;5053028;28;20134;-66
2023/09/14 02:40:31;;;;;;;8.80;5.90;;;;;;;13.09;88.73;102098.69;5069498;28;20029;-67
2023/09/14 02:42:57;;;;;;;10.73;6.43;;;;;;;13.01;88.82;102105.38;5034769;28;20040;-67
2023/09/14 02:45:23;;;;;;;6.68;5.85;;;;;;;12.95;89.00;102093.22;5052463;28;20403;-67
2023/09/14 02:47:48;;;;;;;7.82;6.00;;;;;;;13.03;88.97;102101.69;5025679;28;20477;-67
2023/09/14 02:50:14;;;;;;;7.68;5.97;;;;;;;12.96;88.78;102097.59;5058020;28;20025;-66
2023/09/14 02:52:39;;;;;;;8.73;5.85;;;;;;;12.91;88.89;102108.53;5054845;28;20048;-67
2023/09/14 02:55:05;;;;;;;8.45;5.93;;;;;;;12.91;89.36;102107.66;5051810;28;20039;-67
2023/09/14 02:57:30;;;;;;;6.18;5.55;;;;;;;12.98;89.35;102098.38;5053738;28;20476;-66
2023/09/14 02:59:55;;;;;;;8.32;5.95;;;;;;;12.88;89.42;102094.47;5053589;28;20040;-66
2023/09/14 03:02:22;;;;;;;9.50;6.72;;;;;;;12.88;89.36;102098.03;5053017;28;20051;-66
2023/09/14 03:04:47;;;;;;;8.90;6.75;;;;;;;12.91;89.16;102104.97;5052256;28;20937;-66
2023/09/14 03:07:13;;;;;;;8.98;7.28;;;;;;;12.90;89.25;102101.44;5063987;28;20053;-66
2023/09/14 03:09:41;;;;;;;8.38;5.97;;;;;;;12.82;89.70;102102.78;5024775;28;20021;-66
2023/09/14 03:12:07;;;;;;;11.60;6.75;;;;;;;12.84;89.45;102090.25;5053812;28;20078;-66
2023/09/14 03:14:32;;;;;;;11.23;4.57;;;;;;;13.03;88.95;102092.78;5051084;28;20392;-66
2023/09/14 03:16:58;;;;;;;9.07;6.88;;;;;;;12.83;89.50;102100.06;5051695;28;20047;-67
2023/09/14 03:19:26;;;;;;;8.55;7.10;;;;;;;12.80;90.07;102107.38;5050394;28;20056;-67
2023/09/14 03:21:51;;;;;;;7.57;6.50;;;;;;;12.87;89.76;102108.75;5053164;28;20067;-67
2023/09/14 03:24:17;;;;;;;11.50;7.25;;;;;;;12.84;90.36;102111.59;5052114;28;20052;-67
2023/09/14 03:26:42;;;;;;;9.10;7.47;;;;;;;12.79;90.50;102105.63;5052183;28;20037;-67
2023/09/14 03:29:08;;;;;;;9.90;6.90;;;;;;;12.79;90.61;102098.47;5052349;28;20025;-66
2023/09/14 03:31:34;;;;;;;11.05;7.60;;;;;;;12.72;90.23;102107.75;5053195;28;20560;-67
2023/09/14 03:34:00;;;;;;;7.82;6.90;;;;;;;12.63;90.69;102105.56;5029063;28;20052;-67
2023/09/14 03:36:26;;;;;;;10.73;7.18;;;;;;;12.66;90.46;102103.59;5040708;28;20059;-66
2023/09/14 03:38:52;;;;;;;9.20;6.43;;;;;;;12.66;90.22;102106.25;5034018;28;20049;-66
2023/09/14 03:41:17;;;;;;;8.07;6.88;;;;;;;12.71;89.95;102109.56;5053736;28;20119;-67
2023/09/14 03:43:43;;;;;;;8.82;7.03;;;;;;;12.64;90.18;102102.81;5051744;28;20108;-67
2023/09/14 03:46:10;;;;;;;9.20;7.00;;;;;;;12.61;90.26;102102.97;5052444;28;20017;-67
2023/09/14 03:48:35;;;;;;;6.93;3.83;;;;;;;12.85;89.37;102110.63;5058350;28;20108;-67
2023/09/14 03:51:01;;;;;;;8.65;6.95;;;;;;;12.56;90.02;102112.16;5058706;28;20107;-66
2023/09/14 03:53:27;;;;;;;7.97;6.32;;;;;;;12.62;90.23;102110.06;5053809;28;20482;-66
2023/09/14 03:55:55;;;;;;;7.13;6.43;;;;;;;12.53;91.02;102105.19;5034680;28;20025;-66
2023/09/14 03:58:22;;;;;;;8.82;7.47;;;;;;;12.55;90.91;102113.09;5052587;28;20142;-67
2023/09/14 04:00:48;;;;;;;10.43;7.20;;;;;;;12.50;90.98;102108.88;5071276;28;20069;-67
2023/09/14 04:03:13;;;;;;;11.63;7.32;;;;;;;12.52;90.96;102107.91;5042155;28;20556;-67
2023/09/14 04:05:38;;;;;;;9.25;6.55;;;;;;;12.47;91.35;102103.69;5051741;28;20116;-66
2023/09/14 04:08:05;;;;;;;10.00;6.47;;;;;;;12.53;90.79;102117.63;5052574;28;20100;-66
2023/09/14 04:10:30;;;;;;;9.32;6.93;;;;;;;12.50;91.04;102102.69;5051426;28;20027;-66
2023/09/14 04:13:25;;;;;;;9.95;6.63;;;;;;;12.55;90.67;102105.94;5053254;28;20021;-67
2023/09/14 04:15:52;;;;;;;7.07;6.38;;;;;;;12.38;90.68;102101.50;5047531;28;20481;-66
2023/09/14 04:18:20;;;;;;;10.15;6.97;;;;;;;12.41;91.05;102105.78;5049733;28;20052;-66
2023/09/14 04:20:52;;;;;;;9.05;6.90;;;;;;;12.42;91.13;102113.72;5050873;28;20020;-66
2023/09/14 04:23:17;;;;;;;8.80;7.07;;;;;;;12.33;91.23;102103.53;5047152;28;20020;-66
2023/09/14 04:25:46;;;;;;;8.63;7.13;;;;;;;12.31;91.28;102100.06;5048770;28;20029;-67
2023/09/14 04:28:16;;;;;;;8.48;6.78;;;;;;;12.34;90.91;102104.38;5067803;28;20064;-66
2023/09/14 04:30:51;;;;;;;7.85;6.80;;;;;;;12.32;91.52;102104.44;5062894;28;20028;-66
2023/09/14 04:33:19;;;;;;;8.80;7.90;;;;;;;12.25;91.06;102092.38;5032409;28;20108;-67
2023/09/14 04:35:45;;;;;;;8.25;6.70;;;;;;;12.26;90.70;102104.75;5052277;28;20108;-67
2023/09/14 04:38:11;;;;;;;7.25;4.70;;;;;;;12.46;90.10;102109.09;5034086;28;20059;-67
2023/09/14 04:40:41;;;;;;;8.27;7.28;;;;;;;12.18;91.03;102102.47;5050345;28;20465;-67
2023/09/14 04:43:13;;;;;;;8.88;4.28;;;;;;;12.43;89.98;102104.78;5050937;28;20396;-67
2023/09/14 04:45:38;;;;;;;9.48;6.80;;;;;;;12.23;90.34;102102.25;5064640;28;20052;-66
2023/09/14 04:48:04;;;;;;;7.93;7.13;;;;;;;12.17;90.25;102094.53;5047769;28;20400;-67
2023/09/14 04:50:32;;;;;;;4.07;3.65;;;;;;;12.39;89.71;102105.88;5033759;28;20049;-66
2023/09/14 04:52:57;;;;;;;11.20;6.80;;;;;;;12.15;90.40;102107.13;5051698;28;20029;-67
2023/09/14 04:55:23;;;;;;;9.13;7.30;;;;;;;12.06;90.27;102100.44;5054252;28;20035;-67
2023/09/14 04:57:48;;;;;;;9.43;7.32;;;;;;;12.15;90.43;102104.44;5071730;28;20029;-66
2023/09/14 05:00:14;;;;;;;8.50;6.95;;;;;;;12.03;90.54;102106.78;5071894;28;20029;-66
2023/09/14 05:02:40;;;;;;;10.57;7.38;;;;;;;12.05;90.86;102090.69;5071729;28;20021;-67
2023/09/14 05:05:08;;;;;;;14.07;7.78;;;;;;;12.03;91.04;102106.78;5071129;28;20078;-66
2023/09/14 05:07:33;;;;;;;7.00;4.45;;;;;;;12.21;90.19;102099.66;5020885;28;20125;-66
2023/09/14 05:09:59;;;;;;;9.63;6.90;;;;;;;11.94;90.85;102103.66;5050518;28;20104;-67
2023/09/14 05:12:25;;;;;;;9.15;6.72;;;;;;;11.98;91.24;102105.25;5051689;28;20440;-66
2023/09/14 05:14:50;;;;;;;10.98;7.53;;;;;;;11.93;91.01;102102.81;5055227;28;20035;-66
2023/09/14 05:17:16;;;;;;;8.82;6.07;;;;;;;12.00;90.66;102109.59;5059918;28;20020;-67
2023/09/14 05:19:47;;;;;;;7.22;6.57;;;;;;;11.91;91.42;102109.16;5055166;28;20109;-66
2023/09/14 05:22:12;;;;;;;8.60;7.30;;;;;;;11.99;91.56;102112.31;5054207;28;20036;-67
2023/09/14 05:24:39;;;;;;;9.05;7.13;;;;;;;11.98;91.86;102113.25;5059807;28;20034;-66
2023/09/14 05:27:04;;;;;;;9.02;7.95;;;;;;;11.95;92.06;102119.59;5069152;28;20036;-66
2023/09/14 05:29:30;;;;;;;5.32;3.80;;;;;;;12.17;91.12;102121.22;5048900;28;20032;-66
2023/09/14 05:31:56;;;;;;;10.80;6.82;;;;;;;11.96;91.65;102121.31;5037417;28;20053;-67
2023/09/14 05:34:21;;;;;;;10.65;7.63;;;;;;;11.96;91.87;102125.81;5029108;28;20037;-66
2023/09/14 05:36:47;;;;;;;9.55;7.10;;;;;;;12.03;91.71;102132.59;5053442;28;20365;-67
2023/09/14 05:39:13;;;;;;;9.02;7.65;;;;;;;11.99;91.82;102134.50;5054982;28;20052;-67
2023/09/14 05:41:40;;;;;;;8.57;7.20;;;;;;;11.99;91.91;102126.50;5054125;28;20080;-67
2023/09/14 05:44:09;;;;;;;9.25;7.28;;;;;;;12.02;92.47;102136.16;5065088;28;20044;-66
2023/09/14 05:46:34;;;;;;;7.03;4.25;;;;;;;12.17;91.80;102130.06;5044953;28;20036;-66
2023/09/14 05:49:00;;;;;;;14.10;7.95;;;;;;;12.01;92.01;102129.13;5054150;28;20025;-67
2023/09/14 05:51:26;;;;;;;9.15;8.10;;;;;;;12.14;92.52;102142.69;5051515;28;20367;-67
2023/09/14 05:53:51;;;;;;;9.98;8.68;;;;;;;12.08;93.42;102135.00;5051534;28;20017;-66
2023/09/14 05:56:17;;;;;;;10.48;7.95;;;;;;;12.15;93.63;102142.66;5054122;28;20470;-66
2023/09/14 05:58:42;;;;;;;11.68;8.60;;;;;;;12.08;94.04;102135.88;5036334;28;20035;-66
2023/09/14 06:01:08;;;;;;;10.95;8.75;;;;;;;12.15;94.29;102136.44;5044425;28;20029;-66
2023/09/14 06:03:38;;;;;;;10.77;8.52;;;;;;;12.18;94.55;102142.50;5033631;28;20017;-66
2023/09/14 06:06:03;;;;;;;12.77;8.85;;;;;;;12.19;95.35;102140.69;5053836;28;20032;-66
2023/09/14 06:08:31;;;;;;;11.65;9.38;;;;;;;12.16;95.61;102136.38;5032429;28;20040;-66
2023/09/14 06:10:57;;;;;;;12.45;8.43;;;;;;;12.31;95.61;102141.88;5054895;28;20017;-66
2023/09/14 06:13:22;;;;;;;6.18;4.60;;;;;;;12.48;95.22;102137.44;5051848;28;20105;-66
2023/09/14 06:15:48;;;;;;;10.00;8.88;;;;;;;12.39;96.09;102140.56;5055462;28;20147;-66
2023/09/14 06:18:14;;;;;;;6.38;4.97;;;;;;;12.58;95.67;102140.50;5055019;28;20028;-67
2023/09/14 06:20:39;;;;;;;9.68;8.68;;;;;;;12.47;97.12;102134.81;5053323;28;20076;-67
2023/09/14 06:23:07;;;;;;;11.30;8.25;;;;;;;12.59;97.32;102144.00;5053527;28;20177;-66
2023/09/14 06:25:34;;;;;;;11.82;9.23;;;;;;;12.62;98.04;102142.06;5054843;28;20029;-66
2023/09/14 06:28:00;;;;;;;10.35;8.75;;;;;;;12.65;99.52;102128.56;5036424;28;20021;-66
2023/09/14 06:30:25;;;;;;;14.07;9.45;;;;;;;12.77;98.82;102151.09;5054560;28;20036;-66
2023/09/14 06:32:51;;;;;;;13.32;9.50;;;;;;;12.85;99.97;102140.00;5054126;28;20029;-66
2023/09/14 06:35:17;;;;;;;16.42;10.27;;;;;;;12.83;100.00;102142.78;5053071;28;20476;-66
2023/09/14 06:37:42;;;;;;;12.20;9.65;;;;;;;12.88;100.00;102130.06;5053770;28;20029;-66
2023/09/14 06:40:08;;;;;;;16.40;10.48;;;;;;;13.01;100.00;102140.09;5034858;28;20541;-66
2023/09/14 06:42:34;;;;;;;16.70;10.75;;;;;;;13.01;100.00;102143.63;5058113;28;20489;-67
2023/09/14 06:45:03;;;;;;;14.55;11.32;;;;;;;13.09;100.00;102137.91;5044237;28;20146;-67
2023/09/14 06:47:30;;;;;;;13.38;11.00;;;;;;;13.17;100.00;102144.53;5055144;28;20021;-67
2023/09/14 06:49:56;;;;;;;15.80;10.93;;;;;;;13.17;100.00;102141.00;5072539;28;20021;-66
2023/09/14 06:52:23;;;;;;;16.23;11.38;;;;;;;13.30;100.00;102144.78;5072714;28;20546;-67
2023/09/14 06:54:49;;;;;;;16.30;12.13;;;;;;;13.35;100.00;102140.06;5070431;28;20082;-67
2023/09/14 06:57:14;;;;;;;16.92;12.57;;;;;;;13.38;100.00;102144.34;5034926;28;20025;-67
2023/09/14 06:59:39;;;;;;;18.35;13.05;;;;;;;13.48;100.00;102144.75;5055361;28;20078;-67
2023/09/14 07:02:05;;;;;;;16.20;12.10;;;;;;;13.57;100.00;102146.91;5066728;28;20036;-66
2023/09/14 07:04:33;;;;;;;18.40;12.80;;;;;;;13.62;100.00;102152.88;5035229;28;20103;-66
2023/09/14 07:06:58;;;;;;;17.40;12.77;;;;;;;13.73;100.00;102152.25;5057615;28;20044;-67
2023/09/14 07:09:24;;;;;;;19.30;12.82;;;;;;;13.80;100.00;102153.66;5048055;28;20024;-67
2023/09/14 07:11:49;;;;;;;14.27;12.30;;;;;;;13.90;100.00;102154.84;5055972;28;20036;-67
2023/09/14 07:14:17;;;;;;;21.40;13.40;;;;;;;14.02;100.00;102143.47;5038424;28;20060;-67
2023/09/14 07:16:42;;;;;;;22.98;13.20;;;;;;;14.11;100.00;102150.09;5054730;28;20074;-66
2023/09/14 07:19:08;;;;;;;14.80;12.25;;;;;;;14.22;100.00;102139.66;5059009;28;20029;-67
2023/09/14 07:21:37;;;;;;;18.38;12.48;;;;;;;14.32;100.00;102140.84;5056376;28;20373;-67
2023/09/14 07:24:05;;;;;;;20.17;13.50;;;;;;;14.53;100.00;102145.94;5060927;28;20016;-67
2023/09/14 07:26:31;;;;;;;23.77;13.63;;;;;;;14.56;100.00;102147.56;5070241;28;20038;-67
2023/09/14 07:28:57;;;;;;;17.67;12.55;;;;;;;14.67;100.00;102153.13;5044253;28;20369;-66
2023/09/14 07:31:22;;;;;;;19.67;13.23;;;;;;;14.68;100.00;102141.50;5046941;28;20033;-67
2023/09/14 07:33:48;;;;;;;19.42;12.07;;;;;;;14.84;99.95;102155.66;5022351;28;20034;-66
2023/09/14 07:36:13;;;;;;;16.80;12.48;;;;;;;14.92;99.58;102155.22;5041184;28;20505;-66
2023/09/14 07:38:39;;;;;;;20.02;13.50;;;;;;;14.94;99.20;102148.81;5019662;28;20072;-68
2023/09/14 07:41:04;;;;;;;18.17;11.95;;;;;;;15.12;98.60;102165.59;5053289;28;20033;-66
2023/09/14 07:43:32;;;;;;;19.60;12.93;;;;;;;15.18;99.06;102162.53;5059050;28;20025;-67
2023/09/14 07:45:58;;;;;;;16.30;11.93;;;;;;;15.22;97.78;102158.69;5054189;28;20022;-66
2023/09/14 07:48:23;;;;;;;18.55;12.18;;;;;;;15.42;97.82;102167.34;5022099;28;20453;-67
2023/09/14 07:50:49;;;;;;;15.68;12.70;;;;;;;15.44;96.77;102160.94;5019430;28;20080;-66
2023/09/14 07:53:14;;;;;;;18.73;11.88;;;;;;;15.45;95.64;102159.09;5021837;28;20021;-67
2023/09/14 07:55:39;;;;;;;19.98;12.15;;;;;;;15.63;95.43;102168.66;5038246;28;20056;-66
2023/09/14 07:58:08;;;;;;;17.85;11.18;;;;;;;15.61;95.00;102151.78;5041698;28;20523;-66
2023/09/14 08:00:34;;;;;;;20.27;12.47;;;;;;;15.77;94.75;102162.47;5031910;28;20029;-66
2023/09/14 08:03:00;;;;;;;17.35;11.90;;;;;;;15.80;93.73;102167.63;5043706;28;20280;-67
2023/09/14 08:05:25;;;;;;;16.98;12.38;;;;;;;15.91;93.95;102172.28;5037878;28;20395;-66
2023/09/14 08:07:53;;;;;;;15.88;11.82;;;;;;;15.95;93.80;102179.19;5027460;28;20056;-67
2023/09/14 08:10:21;;;;;;;17.33;12.57;;;;;;;16.09;93.69;102172.94;5035792;28;20033;-67
2023/09/14 08:12:46;;;;;;;15.77;12.68;;;;;;;16.24;92.18;102165.72;5040754;28;20025;-67
2023/09/14 08:15:12;;;;;;;18.58;12.63;;;;;;;16.34;92.61;102169.50;5031281;28;20043;-66
2023/09/14 08:17:38;;;;;;;15.95;12.55;;;;;;;16.56;92.50;102161.72;5036332;28;20036;-67
2023/09/14 08:20:04;;;;;;;20.40;12.23;;;;;;;16.54;92.05;102160.13;5031657;28;20036;-66
2023/09/14 08:22:30;;;;;;;18.20;13.35;;;;;;;16.70;90.60;102168.84;5038655;28;20021;-66
2023/09/14 08:25:00;;;;;;;20.55;15.25;;;;;;;16.90;89.50;102167.50;5030259;28;20040;-66
2023/09/14 08:27:26;;;;;;;17.35;13.65;;;;;;;17.00;88.36;102171.31;5041550;28;20033;-66
2023/09/14 08:29:51;;;;;;;19.40;14.77;;;;;;;17.18;87.49;102166.47;5048584;28;20025;-66
2023/09/14 08:32:17;;;;;;;18.15;13.05;;;;;;;17.35;87.30;102173.34;5047742;28;20029;-66
2023/09/14 08:34:42;;;;;;;19.90;13.40;;;;;;;17.57;85.30;102180.75;5047596;28;20112;-66
2023/09/14 08:37:11;;;;;;;20.65;14.10;;;;;;;17.80;83.91;102178.28;5039995;28;20049;-66
2023/09/14 08:39:40;;;;;;;19.00;13.98;;;;;;;18.01;82.98;102182.09;5046661;28;20127;-66
2023/09/14 08:42:05;;;;;;;17.50;14.37;;;;;;;17.92;82.58;102183.63;5033900;28;20056;-66
2023/09/14 08:44:36;;;;;;;17.75;13.60;;;;;;;17.96;81.71;102181.56;5065050;28;20056;-66
2023/09/14 08:47:02;;;;;;;21.20;14.13;;;;;;;18.13;83.23;102194.66;5052987;28;20032;-66
2023/09/14 08:49:30;;;;;;;18.83;13.82;;;;;;;18.13;82.06;102186.59;5051759;28;20099;-65
2023/09/14 08:51:58;;;;;;;21.75;15.77;;;;;;;18.13;81.03;102191.97;5051282;28;20112;-66
2023/09/14 08:54:24;;;;;;;20.23;15.25;;;;;;;18.00;80.73;102184.91;5033700;28;20104;-66
2023/09/14 08:56:50;;;;;;;18.52;14.27;;;;;;;17.89;81.74;102185.69;5035900;28;20101;-67
2023/09/14 08:59:18;;;;;;;21.40;14.93;;;;;;;17.95;80.82;102185.25;5063109;28;20495;-66
2023/09/14 09:01:44;;;;;;;19.85;15.60;;;;;;;17.93;80.51;102181.78;5055926;28;20024;-65
2023/09/14 09:04:10;;;;;;;19.65;14.05;;;;;;;18.01;78.79;102175.88;5039661;28;20023;-65
2023/09/14 09:06:37;;;;;;;17.88;13.65;;;;;;;18.06;77.11;102179.06;5044018;28;20642;-67
2023/09/14 09:09:06;;;;;;;17.27;14.45;;;;;;;18.16;77.43;102172.03;5033261;28;20044;-67
2023/09/14 09:11:31;;;;;;;15.38;12.73;;;;;;;18.29;76.92;102180.91;5069122;28;20040;-66
2023/09/14 09:13:57;;;;;;;16.23;12.50;;;;;;;18.34;74.49;102172.50;5038164;28;20048;-67
2023/09/14 09:16:22;;;;;;;14.20;11.77;;;;;;;18.28;77.72;102168.44;5067342;28;20070;-66
2023/09/14 09:19:05;;;;;;;14.10;11.52;;;;;;;18.26;77.60;102164.97;5050207;28;20378;-66
2023/09/14 09:21:33;;;;;;;14.65;11.60;;;;;;;18.45;75.30;102169.88;5033909;28;20479;-66
2023/09/14 09:24:00;;;;;;;17.55;11.38;;;;;;;18.72;76.13;102169.59;5032923;28;20052;-66
2023/09/14 09:26:33;;;;;;;14.02;10.00;;;;;;;19.08;73.39;102170.44;5057933;28;20368;-65
2023/09/14 09:28:58;;;;;;;15.38;10.02;;;;;;;19.17;72.06;102172.44;5048333;28;20028;-65
2023/09/14 09:31:41;;;;;;;12.23;8.88;;;;;;;19.36;72.88;102169.16;5056366;28;20037;-66
2023/09/14 09:34:08;;;;;;;13.07;9.10;;;;;;;19.33;68.75;102164.00;5064205;28;20387;-65
2023/09/14 09:36:34;;;;;;;11.77;9.10;;;;;;;19.73;66.38;102177.03;5056595;28;20055;-66
2023/09/14 09:39:04;;;;;;;12.52;8.55;;;;;;;19.84;67.03;102171.63;5032770;28;20459;-66
2023/09/14 09:41:32;;;;;;;10.88;8.70;;;;;;;19.93;66.38;102167.31;5025421;28;20087;-65
2023/09/14 09:43:57;;;;;;;10.88;8.80;;;;;;;20.03;67.19;102173.69;5050830;28;20032;-65
2023/09/14 09:46:23;;;;;;;13.85;9.25;;;;;;;19.77;67.81;102173.13;5059537;28;20037;-65
2023/09/14 09:48:49;;;;;;;16.23;9.65;;;;;;;19.77;68.78;102165.00;5067092;28;20020;-65
2023/09/14 09:51:15;;;;;;;11.98;9.80;;;;;;;19.78;67.09;102163.16;5032850;28;20028;-66
2023/09/14 09:54:02;;;;;;;14.18;10.63;;;;;;;19.78;68.41;102158.63;5033044;28;20029;-65
2023/09/14 09:56:28;;;;;;;10.60;8.68;;;;;;;19.48;68.04;102162.78;5050961;28;20031;-65
2023/09/14 09:58:56;;;;;;;10.30;8.13;;;;;;;19.22;67.23;102159.44;5052945;28;20025;-65
2023/09/14 10:01:22;;;;;;;11.55;8.82;;;;;;;19.08;66.73;102159.66;5054529;28;20386;-65
2023/09/14 10:03:47;;;;;;;10.82;8.25;;;;;;;19.10;67.38;102156.88;5054581;28;20021;-65
2023/09/14 10:06:13;;;;;;;12.07;8.50;;;;;;;19.22;66.75;102163.97;5036478;28;20021;-66
2023/09/14 10:08:39;;;;;;;12.80;9.20;;;;;;;19.42;67.27;102151.63;5054559;28;20025;-66
2023/09/14 10:11:05;;;;;;;11.00;8.63;;;;;;;19.64;68.39;102150.75;5054385;28;20028;-66
2023/09/14 10:13:30;;;;;;;14.02;9.57;;;;;;;19.60;66.58;102141.19;5054547;28;20128;-65
2023/09/14 10:15:56;;;;;;;9.70;8.55;;;;;;;19.55;66.63;102152.34;5036003;28;20483;-65
2023/09/14 10:18:28;;;;;;;12.23;8.02;;;;;;;19.50;66.11;102130.25;5054322;28;20032;-66
2023/09/14 10:20:55;;;;;;;10.15;6.88;;;;;;;19.50;65.63;102151.84;5053891;28;20078;-66
2023/09/14 10:23:22;;;;;;;8.07;6.85;;;;;;;19.60;65.53;102147.44;5054480;28;20051;-66
2023/09/14 10:25:49;;;;;;;9.40;6.32;;;;;;;19.47;62.20;102161.06;5024581;28;20029;-66
2023/09/14 10:28:25;;;;;;;7.65;4.93;;;;;;;19.36;59.05;102163.75;5041178;28;20077;-66
2023/09/14 10:30:52;;;;;;;6.82;4.75;;;;;;;19.27;60.12;102156.41;5035473;28;20016;-65
2023/09/14 10:33:19;;;;;;;6.97;4.15;;;;;;;19.31;59.14;102152.47;5053653;28;20029;-66
2023/09/14 10:35:46;;;;;;;6.57;3.70;;;;;;;19.48;58.86;102154.69;5044975;28;20025;-66
2023/09/14 10:38:16;;;;;;;5.82;4.35;;;;;;;19.64;57.13;102151.59;5058332;28;20120;-65
2023/09/14 10:40:43;;;;;;;4.25;3.53;;;;;;;19.81;57.25;102139.47;5052857;28;20519;-66
2023/09/14 10:43:09;;;;;;;4.63;3.83;;;;;;;19.95;58.76;102147.31;5029902;28;20017;-65
2023/09/14 10:45:38;;;;;;;6.68;4.32;;;;;;;20.08;59.92;102139.03;5050044;28;20035;-66
2023/09/14 10:48:04;;;;;;;;;;;;;;;20.30;62.43;102137.25;5053786;28;20028;-66
2023/09/14 10:50:31;;;;;;;8.18;5.03;;;;;;;20.11;59.09;102135.22;5052656;28;19916;-66
2023/09/14 10:52:57;;;;;;;6.85;5.00;;;;;;;19.94;59.22;102123.09;5056492;28;20446;-66
2023/09/14 10:55:25;;;;;;;7.05;4.55;;;;;;;19.99;60.84;102114.63;5062913;28;20107;-66
2023/09/14 10:57:51;;;;;;;6.80;4.82;;;;;;;20.07;59.58;102117.56;5057549;28;20484;-65
2023/09/14 11:00:31;;;;;;;7.47;4.93;;;;;;;20.20;61.26;102121.78;5047020;28;20563;-65
2023/09/14 11:02:57;;;;;;;5.38;4.50;;;;;;;20.35;59.30;102116.97;5045874;28;20020;-65
2023/09/14 11:05:25;;;;;;;7.82;5.30;;;;;;;20.45;58.52;102127.00;5056614;28;20029;-65
2023/09/14 11:07:57;;;;;;;6.57;4.68;;;;;;;20.64;57.99;102121.75;5056260;28;20111;-66
2023/09/14 11:10:23;;;;;;;8.30;4.57;;;;;;;20.84;58.28;102117.34;5045213;28;20021;-66
2023/09/14 11:12:49;;;;;;;6.30;4.55;;;;;;;20.83;56.67;102116.50;5046761;28;20041;-66
2023/09/14 11:15:14;;;;;;;6.22;4.57;;;;;;;20.85;57.19;102116.34;5053865;28;20384;-66
2023/09/14 11:17:44;;;;;;;8.10;4.35;;;;;;;20.99;56.71;102121.41;5068095;28;20032;-66